Time;durP1;ratioP1;P1;durP2;ratioP2;P2;SDS_P1;SDS_P2;PMS_P1;PMS_P2;Temp;Humidity;BMP_temperature;BMP_pressure;BME280_temperature;BME280_humidity;BME280_pressure;Samples;Min_cycle;Max_cycle;Signal;HPM_P1;HPM_P2
2022/11/16 00:00:36;;;;;;;18.75;9.15;;;;;;;12.64;100.00;98948.44;8322698;28;20124;-50
2022/11/16 00:04:37;;;;;;;16.30;8.95;;;;;;;12.63;100.00;98947.59;8330953;28;20048;-50
2022/11/16 00:08:40;;;;;;;18.40;10.18;;;;;;;12.63;100.00;98952.19;8338859;28;20210;-51
2022/11/16 00:12:41;;;;;;;16.58;9.55;;;;;;;12.60;100.00;98941.75;8330591;28;20042;-50
2022/11/16 00:16:42;;;;;;;16.23;9.73;;;;;;;12.62;100.00;98947.78;8330149;28;20044;-50
2022/11/16 00:20:42;;;;;;;14.27;8.80;;;;;;;12.62;100.00;98950.50;8330765;28;20116;-50
2022/11/16 00:24:43;;;;;;;15.80;9.63;;;;;;;12.63;100.00;98946.78;8334476;28;20046;-50
2022/11/16 00:28:44;;;;;;;15.23;9.40;;;;;;;12.63;100.00;98946.78;8337308;28;20037;-50
2022/11/16 00:32:44;;;;;;;13.07;8.57;;;;;;;12.61;100.00;98948.84;8340222;28;20125;-50
2022/11/16 00:36:45;;;;;;;15.15;9.18;;;;;;;12.61;100.00;98946.13;8331206;28;20052;-51
2022/11/16 00:40:46;;;;;;;13.00;7.60;;;;;;;12.61;100.00;98954.25;8330810;28;20037;-51
2022/11/16 00:44:47;;;;;;;15.90;9.23;;;;;;;12.61;100.00;98938.00;8328637;28;20033;-50
2022/11/16 00:48:47;;;;;;;13.55;8.40;;;;;;;12.61;100.00;98932.56;8345506;28;20096;-51
2022/11/16 00:52:48;;;;;;;12.82;7.88;;;;;;;12.60;100.00;98933.59;8329857;28;20595;-51
2022/11/16 00:56:49;;;;;;;20.85;8.60;;;;;;;12.59;100.00;98940.06;8329838;28;20034;-50
2022/11/16 01:00:50;;;;;;;12.48;7.75;;;;;;;12.61;100.00;98940.69;8345990;28;20041;-51
2022/11/16 01:04:50;;;;;;;16.02;9.15;;;;;;;12.60;100.00;98939.03;8353270;28;20047;-51
2022/11/16 01:08:51;;;;;;;14.10;8.98;;;;;;;12.60;100.00;98933.59;8379625;28;20574;-51
2022/11/16 01:12:53;;;;;;;14.45;8.60;;;;;;;12.63;100.00;98930.50;8358262;28;20033;-50
2022/11/16 01:16:54;;;;;;;11.27;8.15;;;;;;;12.63;100.00;98931.34;8345360;28;20037;-51
2022/11/16 01:20:55;;;;;;;15.80;7.75;;;;;;;12.68;100.00;98936.19;8346334;28;20498;-50
2022/11/16 01:24:56;;;;;;;12.90;7.25;;;;;;;12.69;100.00;98951.44;8327110;28;20402;-51
2022/11/16 01:28:58;;;;;;;12.45;8.02;;;;;;;12.64;100.00;98949.31;8337315;28;20071;-52
2022/11/16 01:33:01;;;;;;;9.52;7.47;;;;;;;12.66;100.00;98946.41;8345818;28;20069;-52
2022/11/16 01:37:05;;;;;;;11.88;8.02;;;;;;;12.65;100.00;98945.53;8345422;28;20048;-51
2022/11/16 01:41:13;;;;;;;12.15;8.00;;;;;;;12.64;100.00;98941.16;8344820;28;20045;-51
2022/11/16 01:45:24;;;;;;;14.30;8.75;;;;;;;12.63;100.00;98939.47;8345714;28;20489;-51
2022/11/16 01:49:32;;;;;;;14.02;9.48;;;;;;;12.60;100.00;98939.03;8345649;28;20453;-51
2022/11/16 01:53:35;;;;;;;16.33;8.93;;;;;;;12.62;100.00;98934.25;8345348;28;20126;-51
2022/11/16 01:57:39;;;;;;;13.35;7.47;;;;;;;12.66;100.00;98940.97;8345157;28;20036;-53
2022/11/16 02:01:42;;;;;;;11.55;8.00;;;;;;;12.64;100.00;98943.03;8367497;28;20045;-51
2022/11/16 02:06:10;;;;;;;14.07;8.38;;;;;;;12.63;100.00;98936.75;8391727;28;20076;-51
2022/11/16 02:10:29;;;;;;;14.25;9.45;;;;;;;12.59;100.00;98921.09;8378192;28;20036;-51
2022/11/16 02:15:10;;;;;;;15.70;9.90;;;;;;;12.57;100.00;98906.88;8312001;28;20095;-50
2022/11/16 02:19:44;;;;;;;15.35;9.38;;;;;;;12.53;100.00;98901.00;8311805;28;20145;-51
2022/11/16 02:24:17;;;;;;;14.90;9.63;;;;;;;12.53;100.00;98894.75;8306112;28;20041;-51
2022/11/16 02:28:57;;;;;;;16.20;8.82;;;;;;;12.57;100.00;98883.34;8321571;28;20480;-51
2022/11/16 02:33:03;;;;;;;14.30;8.02;;;;;;;12.57;100.00;98869.78;8343745;28;20098;-50
2022/11/16 02:37:06;;;;;;;14.45;8.52;;;;;;;12.56;100.00;98862.66;8342974;28;20056;-50
2022/11/16 02:41:14;;;;;;;13.63;8.63;;;;;;;12.58;100.00;98857.91;8366546;28;20037;-52
2022/11/16 02:45:22;;;;;;;12.55;7.80;;;;;;;12.58;100.00;98862.47;8341961;28;20041;-51
2022/11/16 02:49:27;;;;;;;14.85;7.97;;;;;;;12.60;100.00;98865.84;8342686;28;20039;-53
2022/11/16 02:53:32;;;;;;;10.00;7.10;;;;;;;12.62;100.00;98874.59;8359290;28;20036;-51
2022/11/16 02:57:54;;;;;;;13.27;6.97;;;;;;;12.62;100.00;98871.88;8348037;28;20691;-52
2022/11/16 03:02:09;;;;;;;12.70;7.13;;;;;;;12.59;100.00;98869.59;8342471;28;20041;-51
2022/11/16 03:06:24;;;;;;;11.93;7.63;;;;;;;12.55;100.00;98884.53;8359912;28;20044;-51
2022/11/16 03:11:59;;;;;;;10.57;6.70;;;;;;;12.49;100.00;98879.88;8376631;28;20036;-52
2022/11/16 03:14:53;;;;;;;10.38;6.78;;;;;;;12.48;100.00;98875.50;8375884;28;20087;-51
2022/11/16 03:18:57;;;;;;;11.85;6.85;;;;;;;12.48;100.00;98881.78;8375497;28;20513;-50
2022/11/16 03:23:01;;;;;;;11.05;6.90;;;;;;;12.46;100.00;98896.53;8372020;28;20048;-50
2022/11/16 03:27:14;;;;;;;9.45;6.65;;;;;;;12.48;100.00;98905.31;8371532;28;20036;-52
2022/11/16 03:31:24;;;;;;;11.63;6.40;;;;;;;12.47;100.00;98909.06;8340313;28;20086;-51
2022/11/16 03:35:34;;;;;;;10.13;6.45;;;;;;;12.45;100.00;98905.72;8322132;28;20410;-52
2022/11/16 03:39:38;;;;;;;5.95;4.97;;;;;;;12.43;100.00;98926.72;8325508;28;20463;-51
2022/11/16 03:43:42;;;;;;;7.00;4.07;;;;;;;12.50;100.00;98924.97;8325060;28;20053;-51
2022/11/16 03:47:44;;;;;;;5.22;4.32;;;;;;;12.48;100.00;98922.44;8325899;28;20041;-51
2022/11/16 03:51:44;;;;;;;7.03;4.13;;;;;;;12.45;100.00;98921.97;8325978;28;20099;-51
2022/11/16 03:55:46;;;;;;;9.80;4.75;;;;;;;12.45;100.00;98938.22;8325793;28;20034;-51
2022/11/16 03:59:47;;;;;;;7.28;4.13;;;;;;;12.46;100.00;98956.16;8336663;28;20037;-51
2022/11/16 04:03:48;;;;;;;5.35;3.47;;;;;;;12.44;100.00;98950.13;8321547;28;20041;-51
2022/11/16 04:26:06;;;;;;;3.63;2.13;;;;;;;12.35;100.00;98962.09;8340562;28;20047;-51
2022/11/16 04:30:07;;;;;;;4.38;2.30;;;;;;;12.35;100.00;98953.97;8341541;28;20041;-51
2022/11/16 04:38:31;;;;;;;3.47;2.50;;;;;;;12.35;100.00;98964.81;8341423;28;20049;-51
2022/11/16 04:42:32;;;;;;;1.92;1.50;;;;;;;12.30;100.00;98951.81;8340446;28;20129;-51
2022/11/16 04:47:33;;;;;;;2.15;1.83;;;;;;;12.31;100.00;98963.47;8339110;28;20406;-51
2022/11/16 04:50:53;;;;;;;3.45;1.52;;;;;;;12.26;100.00;98965.94;8339185;28;20037;-51
2022/11/16 04:54:54;;;;;;;1.85;1.38;;;;;;;12.23;100.00;98972.56;8340788;28;20064;-51
2022/11/16 04:58:56;;;;;;;1.65;1.10;;;;;;;12.17;100.00;98972.47;8340656;28;20029;-51
2022/11/16 05:02:57;;;;;;;1.52;0.80;;;;;;;12.12;100.00;98972.19;8339349;28;20125;-51
2022/11/16 05:06:58;;;;;;;9.07;1.45;;;;;;;12.07;100.00;98977.34;8353250;28;20511;-53
2022/11/16 05:10:59;;;;;;;2.85;1.02;;;;;;;12.05;100.00;98984.81;8359349;28;20032;-49
2022/11/16 05:15:00;;;;;;;1.50;1.02;;;;;;;11.89;100.00;98981.25;8345613;28;20041;-49
2022/11/16 05:24:34;;;;;;;2.63;1.15;;;;;;;11.70;100.00;98989.94;8331281;28;20041;-51
2022/11/16 05:27:49;;;;;;;4.03;1.27;;;;;;;11.71;100.00;98982.63;8332058;28;20056;-54
2022/11/16 05:31:50;;;;;;;6.93;1.52;;;;;;;11.77;100.00;98985.47;8342738;28;20047;-50
2022/11/16 05:35:51;;;;;;;3.75;1.38;;;;;;;11.71;100.00;98982.63;8336542;28;20045;-53
2022/11/16 05:39:53;;;;;;;3.90;1.55;;;;;;;11.67;100.00;98987.59;8328598;28;20025;-50
2022/11/16 05:43:58;;;;;;;8.13;1.73;;;;;;;11.61;100.00;98988.31;8344873;28;20068;-51
2022/11/16 05:48:00;;;;;;;5.28;1.80;;;;;;;11.53;100.00;98988.38;8355093;28;20040;-51
2022/11/16 05:52:00;;;;;;;5.80;1.70;;;;;;;11.38;100.00;98992.91;8356786;28;20167;-50
2022/11/16 05:56:02;;;;;;;4.15;1.25;;;;;;;11.40;100.00;99004.41;8351420;28;20037;-51
2022/11/16 06:00:08;;;;;;;5.55;1.30;;;;;;;11.47;100.00;99002.63;8342543;28;20041;-51
2022/11/16 06:04:18;;;;;;;5.78;1.33;;;;;;;11.53;100.00;99007.31;8336271;28;20406;-51
2022/11/16 06:08:18;;;;;;;7.82;1.42;;;;;;;11.54;100.00;99019.84;8336710;28;20052;-50
2022/11/16 06:12:22;;;;;;;7.38;1.13;;;;;;;11.53;100.00;99028.16;8341843;28;20381;-49
2022/11/16 06:16:22;;;;;;;6.32;1.40;;;;;;;11.45;100.00;99020.94;8340261;28;20036;-51
2022/11/16 06:20:23;;;;;;;3.97;1.10;;;;;;;11.38;100.00;99041.63;8331683;28;20038;-50
2022/11/16 06:24:26;;;;;;;6.85;1.80;;;;;;;11.30;100.00;99039.00;8337493;28;20243;-49
2022/11/16 06:28:27;;;;;;;7.85;2.30;;;;;;;11.22;100.00;99052.56;8337341;28;20049;-50
2022/11/16 06:32:28;;;;;;;10.20;2.70;;;;;;;11.26;100.00;99059.28;8331529;28;20052;-51
2022/11/16 06:36:29;;;;;;;18.75;4.00;;;;;;;11.26;100.00;99047.66;8307748;28;20037;-52
2022/11/16 06:40:32;;;;;;;13.85;3.63;;;;;;;11.05;100.00;99051.03;8305502;28;20041;-50
2022/11/16 06:44:35;;;;;;;15.10;3.85;;;;;;;10.80;100.00;99046.75;8306779;28;20068;-50
2022/11/16 06:48:37;;;;;;;16.47;4.33;;;;;;;10.61;100.00;99046.38;8337110;28;20029;-50
2022/11/16 06:52:45;;;;;;;14.43;4.20;;;;;;;10.46;100.00;99054.38;8327081;28;20053;-51
2022/11/16 06:56:46;;;;;;;10.07;3.38;;;;;;;10.41;100.00;99064.88;8335816;28;20067;-52
2022/11/16 07:00:47;;;;;;;12.18;2.85;;;;;;;10.15;100.00;99066.97;8341077;28;20033;-52
2022/11/16 07:04:49;;;;;;;7.75;2.08;;;;;;;10.06;100.00;99077.97;8338529;28;20053;-50
2022/11/16 07:08:50;;;;;;;9.10;1.85;;;;;;;10.07;100.00;99074.28;8333924;28;20076;-50
2022/11/16 07:12:56;;;;;;;6.90;1.33;;;;;;;10.13;100.00;99079.84;8331609;28;20040;-51
2022/11/16 07:16:57;;;;;;;7.70;1.55;;;;;;;10.15;100.00;99079.66;8368126;28;20297;-50
2022/11/16 07:20:58;;;;;;;10.70;2.17;;;;;;;10.11;100.00;99081.84;8333839;28;20041;-51
2022/11/16 07:24:59;;;;;;;7.78;1.35;;;;;;;10.13;100.00;99071.72;8331372;28;20576;-50
2022/11/16 07:29:01;;;;;;;8.23;1.73;;;;;;;10.17;100.00;99085.72;8342293;28;20440;-50
2022/11/16 07:33:03;;;;;;;8.00;1.30;;;;;;;10.34;100.00;99096.28;8332957;28;20414;-50
2022/11/16 07:37:23;;;;;;;7.13;1.80;;;;;;;10.47;100.00;99103.84;8335572;28;20079;-51
2022/11/16 07:41:24;;;;;;;6.97;1.25;;;;;;;10.58;100.00;99111.59;8332417;28;20434;-50
2022/11/16 07:45:41;;;;;;;9.93;1.20;;;;;;;10.68;100.00;99121.19;8318357;28;20284;-53
2022/11/16 07:49:44;;;;;;;6.47;1.30;;;;;;;10.69;100.00;99128.25;8324816;28;20038;-50
2022/11/16 07:53:54;;;;;;;12.77;1.23;;;;;;;10.65;100.00;99129.63;8344548;28;20041;-51
2022/11/16 07:57:58;;;;;;;;;;;;;;;10.60;100.00;99126.59;8338488;28;20033;-50
2022/11/16 08:01:59;;;;;;;2.90;1.00;;;;;;;10.66;100.00;99136.72;8337662;28;20382;-50
2022/11/16 08:06:04;;;;;;;6.63;1.05;;;;;;;10.67;100.00;99143.78;8353277;28;20542;-51
2022/11/16 08:10:05;;;;;;;4.13;1.08;;;;;;;10.61;100.00;99152.59;8368919;28;20061;-50
2022/11/16 08:14:06;;;;;;;6.07;1.00;;;;;;;10.58;100.00;99150.25;8350705;28;20040;-50
2022/11/16 08:18:07;;;;;;;7.53;1.45;;;;;;;10.60;100.00;99158.19;8353797;28;20051;-50
2022/11/16 08:22:08;;;;;;;4.95;1.10;;;;;;;10.62;100.00;99166.97;8337850;28;20388;-50
2022/11/16 08:26:13;;;;;;;4.63;1.30;;;;;;;10.58;100.00;99177.28;8319705;28;20094;-50
2022/11/16 08:30:14;;;;;;;9.98;1.20;;;;;;;10.65;100.00;99172.88;8335536;28;20498;-50
2022/11/16 08:34:15;;;;;;;4.20;1.20;;;;;;;10.98;100.00;99177.13;8334962;28;20451;-51
2022/11/16 08:38:19;;;;;;;10.68;1.40;;;;;;;11.68;99.91;99177.91;8367863;28;20509;-50
2022/11/16 08:42:20;;;;;;;7.93;1.25;;;;;;;11.66;99.17;99175.41;8340711;28;20044;-50
2022/11/16 08:46:23;;;;;;;10.70;1.88;;;;;;;11.89;97.67;99170.81;8341215;28;20044;-50
2022/11/16 08:50:31;;;;;;;7.25;1.45;;;;;;;14.50;86.52;99174.16;8350533;28;20037;-50
2022/11/16 08:54:32;;;;;;;11.73;1.60;;;;;;;15.82;79.32;99176.47;8327434;28;20041;-50
2022/11/16 08:58:35;;;;;;;9.63;0.93;;;;;;;15.76;78.37;99182.75;8339472;28;20060;-51
2022/11/16 09:02:37;;;;;;;4.70;1.33;;;;;;;15.63;78.44;99178.94;8342222;28;20434;-50
2022/11/16 09:06:37;;;;;;;9.10;2.15;;;;;;;16.28;78.45;99175.47;8333538;28;20034;-52
2022/11/16 09:10:38;;;;;;;7.50;2.42;;;;;;;16.13;77.27;99184.91;8342921;28;20043;-51
2022/11/16 09:14:38;;;;;;;7.82;1.50;;;;;;;16.22;77.62;99189.09;8360286;28;20529;-50
2022/11/16 09:18:39;;;;;;;5.50;1.30;;;;;;;16.64;74.54;99181.34;8349300;28;20037;-50
2022/11/16 09:22:40;;;;;;;6.60;1.85;;;;;;;16.92;76.61;99192.00;8357732;28;20374;-53
2022/11/16 09:26:41;;;;;;;6.95;1.42;;;;;;;17.45;73.65;99188.09;8358547;28;20041;-50
2022/11/16 09:30:42;;;;;;;9.50;1.70;;;;;;;17.47;73.54;99185.97;8343407;28;20048;-51
2022/11/16 09:34:43;;;;;;;11.95;1.35;;;;;;;17.39;74.62;99184.28;8342414;28;20168;-52
2022/11/16 09:38:45;;;;;;;8.13;1.30;;;;;;;17.90;71.03;99181.53;8342653;28;20041;-52
2022/11/16 09:43:16;;;;;;;5.88;1.50;;;;;;;18.07;68.46;99176.38;8341725;28;20056;-51
2022/11/16 09:47:20;;;;;;;6.90;1.10;;;;;;;17.59;68.73;99173.28;8339533;28;20477;-53
2022/11/16 09:51:25;;;;;;;9.30;1.47;;;;;;;17.66;71.52;99171.41;8341492;28;20065;-54
2022/11/16 09:55:31;;;;;;;;;;;;;;;17.87;69.92;99181.16;8341770;28;20044;-52
2022/11/16 09:59:44;;;;;;;4.72;1.08;;;;;;;17.76;70.99;99185.41;8342020;28;19928;-53
2022/11/16 10:03:49;;;;;;;5.90;1.02;;;;;;;17.59;70.57;99189.69;8344826;28;20047;-53
2022/11/16 10:07:53;;;;;;;;;;;;;;;18.12;68.90;99185.63;8350000;28;20034;-53
2022/11/16 10:12:23;;;;;;;10.15;1.17;;;;;;;18.04;68.78;99179.56;8334183;28;19924;-50
2022/11/16 10:17:04;;;;;;;9.48;1.60;;;;;;;17.73;69.15;99183.13;8356912;28;20072;-52
2022/11/16 10:21:25;;;;;;;4.13;0.98;;;;;;;18.34;67.75;99173.22;8356029;28;20040;-51
2022/11/16 10:25:36;;;;;;;5.03;1.00;;;;;;;18.44;67.38;99179.06;8356889;28;20522;-54
2022/11/16 10:30:03;;;;;;;6.10;0.90;;;;;;;18.42;66.93;99178.44;8356923;28;20033;-52
2022/11/16 10:34:08;;;;;;;8.38;1.17;;;;;;;18.03;67.72;99169.69;8356433;28;20040;-54
2022/11/16 10:38:13;;;;;;;5.63;1.05;;;;;;;18.55;66.62;99163.81;8324301;28;20152;-52
2022/11/16 10:42:21;;;;;;;9.63;1.20;;;;;;;18.58;66.54;99157.88;8322388;28;20048;-51
2022/11/16 10:46:44;;;;;;;7.28;1.13;;;;;;;18.32;68.02;99147.97;8334437;28;20040;-51
2022/11/16 10:50:46;;;;;;;5.23;1.00;;;;;;;18.67;68.75;99129.97;8356224;28;20044;-51
2022/11/16 10:54:47;;;;;;;6.10;1.00;;;;;;;18.84;66.50;99146.66;8330370;28;20099;-51
2022/11/16 10:58:58;;;;;;;4.78;0.75;;;;;;;19.68;61.28;99130.25;8337801;28;20025;-53
2022/11/16 11:02:58;;;;;;;3.60;0.73;;;;;;;18.91;63.95;99137.31;8354488;28;20131;-54
2022/11/16 11:07:20;;;;;;;8.50;0.82;;;;;;;19.25;61.97;99138.63;8380091;28;20520;-54
2022/11/16 11:12:38;;;;;;;3.85;0.90;;;;;;;19.84;60.71;99115.88;8359644;28;20544;-54
2022/11/16 11:15:43;;;;;;;6.13;0.90;;;;;;;19.83;61.80;99125.19;8355508;28;20037;-51
2022/11/16 11:19:44;;;;;;;4.80;0.80;;;;;;;20.29;60.91;99128.94;8355729;28;20037;-51
2022/11/16 11:23:51;;;;;;;6.22;0.80;;;;;;;20.64;58.75;99128.91;8355641;28;20071;-52
2022/11/16 11:28:15;;;;;;;5.75;0.93;;;;;;;20.75;57.96;99111.63;8355636;28;20120;-53
2022/11/16 11:32:18;;;;;;;8.30;0.88;;;;;;;20.58;58.27;99105.16;8354276;28;20057;-52
2022/11/16 11:36:21;;;;;;;4.18;0.82;;;;;;;19.98;60.53;99100.91;8354843;28;20036;-50
2022/11/16 11:40:25;;;;;;;4.38;1.08;;;;;;;19.58;62.03;99103.41;8354987;28;20041;-50
2022/11/16 11:44:37;;;;;;;2.10;0.70;;;;;;;19.51;61.31;99096.34;8350100;28;20037;-54
2022/11/16 11:48:54;;;;;;;3.05;0.75;;;;;;;19.16;62.41;99090.66;8354118;28;20082;-51
2022/11/16 11:53:17;;;;;;;3.60;0.77;;;;;;;18.83;61.35;99082.00;8352674;28;20401;-54
2022/11/16 11:57:22;;;;;;;6.05;0.85;;;;;;;17.17;68.46;99081.03;8353152;28;20055;-52
2022/11/16 12:01:38;;;;;;;;;;;;;;;17.48;67.22;99065.53;8353214;28;20039;-50
2022/11/16 12:10:26;;;;;;;5.97;0.80;;;;;;;16.53;69.73;99072.03;8402916;27;20403;-53
2022/11/16 12:14:46;;;;;;;3.20;0.55;;;;;;;17.62;67.05;99068.19;8369365;28;20054;-49
2022/11/16 12:19:16;;;;;;;5.97;0.63;;;;;;;20.16;61.25;99054.22;8399214;27;20047;-51
2022/11/16 12:23:43;;;;;;;3.50;0.88;;;;;;;18.08;65.60;99057.72;8398814;27;20123;-53
2022/11/16 12:28:11;;;;;;;4.93;0.70;;;;;;;16.85;68.83;99060.16;8398188;27;20033;-49
2022/11/16 12:32:24;;;;;;;2.47;0.70;;;;;;;16.77;70.98;99052.22;8380764;27;20044;-50
2022/11/16 12:45:45;;;;;;;2.20;0.47;;;;;;;17.09;66.92;99038.41;8390925;27;20979;-52
2022/11/16 12:50:21;;;;;;;3.40;0.73;;;;;;;16.32;70.32;99034.91;8357617;28;20171;-50
2022/11/16 12:54:41;;;;;;;4.03;1.08;;;;;;;15.82;73.34;99018.41;8347451;28;20135;-53
2022/11/16 12:59:21;;;;;;;3.85;0.50;;;;;;;15.47;74.25;99021.31;8376085;28;20060;-49
2022/11/16 13:03:33;;;;;;;4.82;0.70;;;;;;;15.40;75.13;99025.91;8379426;28;20083;-51
2022/11/16 13:07:42;;;;;;;7.68;1.08;;;;;;;15.52;74.94;99021.53;8375030;28;20406;-49
2022/11/16 13:11:54;;;;;;;3.40;0.82;;;;;;;15.39;75.11;99018.81;8382390;28;20078;-50
2022/11/16 13:15:57;;;;;;;2.38;0.40;;;;;;;15.41;75.61;99005.81;8378289;28;20118;-52
2022/11/16 13:20:30;;;;;;;3.28;0.75;;;;;;;15.28;76.25;99005.75;8373260;28;20049;-52
2022/11/16 13:24:49;;;;;;;6.80;0.52;;;;;;;15.24;77.31;99009.97;8378641;28;20405;-50
2022/11/16 13:29:17;;;;;;;2.15;0.52;;;;;;;15.20;79.44;99005.13;8378171;28;20302;-50
2022/11/16 13:33:43;;;;;;;3.78;0.60;;;;;;;15.04;80.36;99003.63;8380454;28;20048;-50
2022/11/16 13:37:45;;;;;;;2.83;0.60;;;;;;;15.24;81.52;98995.50;8347796;28;20116;-49
2022/11/16 13:41:48;;;;;;;5.22;0.82;;;;;;;14.99;80.74;98995.25;8348176;28;20037;-50
2022/11/16 13:50:05;;;;;;;4.15;0.57;;;;;;;14.90;82.76;98985.59;8350874;27;20471;-51
2022/11/16 13:54:12;;;;;;;3.47;0.60;;;;;;;14.72;83.52;98985.34;8349953;28;20087;-51
2022/11/16 13:58:20;;;;;;;4.22;0.60;;;;;;;14.71;82.89;98991.81;8348302;28;20049;-49
2022/11/16 14:02:41;;;;;;;3.80;0.65;;;;;;;14.63;83.85;98988.41;8349474;28;20033;-50
2022/11/16 14:06:47;;;;;;;3.95;0.70;;;;;;;14.65;85.54;98976.31;8348371;28;20490;-54
2022/11/16 14:15:18;;;;;;;2.05;0.57;;;;;;;14.54;85.74;98982.34;8358475;27;20954;-50
2022/11/16 14:19:50;;;;;;;1.13;0.55;;;;;;;14.67;83.31;98982.38;8348047;28;20409;-51
2022/11/16 14:24:20;;;;;;;5.38;0.50;;;;;;;14.77;81.67;98974.69;8347773;28;20449;-52
2022/11/16 14:28:49;;;;;;;4.40;0.75;;;;;;;14.63;81.82;98983.84;8339202;28;20048;-50
2022/11/16 14:32:52;;;;;;;1.35;0.40;;;;;;;14.42;81.18;98975.78;8346522;28;20030;-53
2022/11/16 14:36:53;;;;;;;2.95;0.68;;;;;;;14.26;82.22;98989.72;8347886;28;20087;-49
2022/11/16 14:40:55;;;;;;;3.40;0.68;;;;;;;14.07;83.35;98965.97;8349668;28;20041;-49
2022/11/16 14:45:00;;;;;;;3.20;0.50;;;;;;;13.94;84.33;98970.50;8349211;28;20037;-49
2022/11/16 14:49:02;;;;;;;1.92;0.68;;;;;;;13.86;84.91;98968.78;8348581;28;20525;-49
2022/11/16 14:53:06;;;;;;;4.75;1.52;;;;;;;13.69;86.69;98956.53;8348381;28;20056;-53
2022/11/16 14:57:17;;;;;;;4.28;0.85;;;;;;;13.61;88.02;98956.69;8349123;28;20087;-51
2022/11/16 15:01:21;;;;;;;3.17;0.98;;;;;;;13.54;89.73;98953.06;8348947;28;20033;-50
2022/11/16 15:05:25;;;;;;;;;;;;;;;13.41;91.46;98942.97;8325852;28;20044;-50
2022/11/16 15:09:48;;;;;;;2.25;0.75;;;;;;;13.41;92.18;98931.25;8338051;28;19916;-53
2022/11/16 15:13:49;;;;;;;8.38;1.10;;;;;;;13.41;93.40;98931.25;8328296;28;20487;-51
2022/11/16 15:18:11;;;;;;;3.42;1.08;;;;;;;13.38;93.86;98937.09;8336012;28;20049;-49
2022/11/16 15:22:17;;;;;;;4.85;0.98;;;;;;;13.29;94.46;98927.41;8323658;28;20057;-50
2022/11/16 15:26:20;;;;;;;2.08;0.88;;;;;;;13.24;95.01;98925.28;8301877;28;20415;-53
2022/11/16 15:30:25;;;;;;;4.32;1.27;;;;;;;13.24;94.90;98930.72;8310323;28;20553;-53
2022/11/16 15:34:25;;;;;;;12.88;3.72;;;;;;;13.11;96.12;98935.19;8309396;28;20128;-53
2022/11/16 15:38:29;;;;;;;6.80;2.60;;;;;;;12.87;97.83;98922.00;8309916;28;20049;-50
2022/11/16 15:42:30;;;;;;;3.93;0.70;;;;;;;12.80;97.96;98915.66;8317114;28;20038;-49
2022/11/16 15:47:16;;;;;;;6.43;1.55;;;;;;;12.73;98.03;98912.03;8312670;28;20065;-52
2022/11/16 15:51:22;;;;;;;8.32;2.22;;;;;;;12.66;97.94;98908.44;8324114;28;20079;-51
2022/11/16 15:55:40;;;;;;;7.10;2.38;;;;;;;12.50;97.92;98885.13;8307722;28;20034;-50
2022/11/16 15:59:50;;;;;;;8.18;1.50;;;;;;;12.41;98.49;98891.69;8307561;28;20603;-54
2022/11/16 16:03:59;;;;;;;5.05;1.45;;;;;;;12.39;98.22;98896.47;8299953;28;20042;-50
2022/11/16 16:08:00;;;;;;;5.95;1.60;;;;;;;12.34;98.83;98893.50;8306548;28;20068;-47
2022/11/16 16:12:23;;;;;;;5.93;1.40;;;;;;;12.27;99.40;98899.88;8311664;28;20346;-48
2022/11/16 16:16:30;;;;;;;4.57;1.35;;;;;;;12.12;99.94;98894.50;8310556;28;20285;-49
2022/11/16 16:20:31;;;;;;;3.88;1.23;;;;;;;11.88;100.00;98892.09;8294457;28;20061;-50
2022/11/16 16:24:43;;;;;;;5.93;1.50;;;;;;;11.73;100.00;98888.56;8320315;28;20474;-51
2022/11/16 16:28:43;;;;;;;3.42;1.33;;;;;;;11.74;100.00;98890.22;8342363;28;22067;-50
2022/11/16 16:32:49;;;;;;;1.92;0.90;;;;;;;11.70;100.00;98887.06;8359629;28;20689;-49
2022/11/16 16:36:49;;;;;;;4.38;1.80;;;;;;;11.42;100.00;98880.59;8375130;28;20517;-48
2022/11/16 16:40:50;;;;;;;4.07;1.35;;;;;;;11.23;100.00;98870.31;8353844;28;20595;-48
2022/11/16 16:44:51;;;;;;;5.22;1.65;;;;;;;11.05;100.00;98861.72;8348680;28;20558;-48
2022/11/16 16:48:52;;;;;;;3.22;1.02;;;;;;;11.00;100.00;98864.13;8333255;28;20037;-48
2022/11/16 16:52:52;;;;;;;3.50;1.23;;;;;;;11.12;100.00;98862.66;8348038;28;20033;-49
2022/11/16 16:56:55;;;;;;;2.05;1.20;;;;;;;11.24;100.00;98861.19;8348426;28;20128;-48
2022/11/16 17:00:56;;;;;;;8.95;6.20;;;;;;;11.39;100.00;98869.31;8349905;28;20414;-51
2022/11/16 17:04:56;;;;;;;5.40;2.58;;;;;;;11.44;100.00;98856.88;8354713;28;20052;-49
2022/11/16 17:08:57;;;;;;;12.13;5.55;;;;;;;11.40;100.00;98860.16;8346657;28;20051;-50
2022/11/16 17:12:58;;;;;;;9.63;3.95;;;;;;;11.34;100.00;98850.94;8320379;28;20045;-51
2022/11/16 17:16:58;;;;;;;12.52;3.45;;;;;;;11.31;100.00;98848.59;8321748;28;20115;-48
2022/11/16 17:21:04;;;;;;;9.55;3.53;;;;;;;11.23;100.00;98839.72;8315684;28;20119;-50
2022/11/16 17:25:04;;;;;;;5.95;3.20;;;;;;;11.22;100.00;98825.34;8320292;28;20459;-49
2022/11/16 17:29:05;;;;;;;11.55;5.25;;;;;;;11.19;100.00;98825.72;8333920;28;20067;-52
2022/11/16 17:33:05;;;;;;;13.52;5.45;;;;;;;11.16;100.00;98826.09;8346842;28;20424;-49
2022/11/16 17:37:06;;;;;;;9.73;4.72;;;;;;;11.09;100.00;98825.16;8387087;28;20704;-49
2022/11/16 17:41:11;;;;;;;11.48;4.85;;;;;;;10.87;100.00;98823.38;8387945;28;20033;-49
2022/11/16 17:45:12;;;;;;;9.10;3.08;;;;;;;10.71;100.00;98810.03;8341603;28;20120;-51
2022/11/16 17:49:12;;;;;;;4.60;1.50;;;;;;;10.53;100.00;98796.00;8322023;28;20048;-52
2022/11/16 17:53:13;;;;;;;6.53;2.40;;;;;;;10.41;100.00;98802.84;8321319;28;20112;-49
2022/11/16 17:57:14;;;;;;;4.90;2.92;;;;;;;10.46;100.00;98811.22;8354061;28;20050;-51
2022/11/16 18:01:15;;;;;;;6.03;2.70;;;;;;;10.50;100.00;98796.38;8354548;28;20048;-49
2022/11/16 18:05:15;;;;;;;8.15;2.70;;;;;;;10.54;100.00;98803.06;8348458;28;20041;-49
2022/11/16 18:09:17;;;;;;;7.25;2.85;;;;;;;10.50;100.00;98796.38;8345330;28;20044;-49
2022/11/16 18:13:18;;;;;;;7.55;2.10;;;;;;;10.61;100.00;98795.09;8352941;28;20106;-51
2022/11/16 18:17:18;;;;;;;7.10;2.72;;;;;;;10.71;100.00;98792.97;8353522;28;20052;-48
2022/11/16 18:21:19;;;;;;;5.75;2.53;;;;;;;10.77;100.00;98787.63;8348713;28;20087;-50
2022/11/16 18:25:19;;;;;;;6.65;2.65;;;;;;;10.81;100.00;98788.13;8352075;28;20037;-50
2022/11/16 18:29:21;;;;;;;4.15;2.28;;;;;;;10.88;100.00;98794.47;8351076;28;20237;-49
2022/11/16 18:33:21;;;;;;;6.25;2.42;;;;;;;10.92;100.00;98787.69;8334311;28;20033;-49
2022/11/16 18:37:22;;;;;;;6.03;2.10;;;;;;;10.95;100.00;98787.31;8353817;28;20041;-48
2022/11/16 18:41:25;;;;;;;5.60;2.70;;;;;;;10.95;100.00;98790.84;8350866;28;20128;-51
2022/11/16 18:45:26;;;;;;;5.15;1.98;;;;;;;10.97;100.00;98786.09;8351243;28;20065;-50
2022/11/16 18:49:26;;;;;;;5.13;2.10;;;;;;;10.95;100.00;98785.44;8350780;28;20037;-52
2022/11/16 18:53:28;;;;;;;6.95;2.78;;;;;;;10.95;100.00;98785.44;8350673;28;20040;-50
2022/11/16 18:57:29;;;;;;;6.18;2.58;;;;;;;10.95;100.00;98781.91;8351117;28;20059;-50
2022/11/16 19:01:30;;;;;;;5.50;3.15;;;;;;;10.92;100.00;98783.09;8351792;28;20033;-49
2022/11/16 19:05:30;;;;;;;7.80;2.90;;;;;;;10.93;100.00;98770.44;8343778;28;20060;-50
2022/11/16 19:09:31;;;;;;;7.05;2.67;;;;;;;10.93;100.00;98771.28;8349702;28;20506;-53
2022/11/16 19:13:32;;;;;;;6.60;2.25;;;;;;;11.05;100.00;98758.97;8350994;28;20040;-49
2022/11/16 19:17:33;;;;;;;7.25;2.25;;;;;;;11.10;100.00;98751.13;8356419;28;20068;-50
2022/11/16 19:21:33;;;;;;;4.25;2.47;;;;;;;11.10;100.00;98751.13;8357293;28;20565;-50
2022/11/16 19:25:34;;;;;;;5.63;2.25;;;;;;;11.09;100.00;98740.50;8356809;28;20037;-51
2022/11/16 19:29:34;;;;;;;7.35;3.25;;;;;;;11.14;100.00;98741.63;8350662;28;20085;-50
2022/11/16 19:33:36;;;;;;;9.20;2.00;;;;;;;11.16;100.00;98739.56;8353177;28;20368;-50
2022/11/16 19:37:37;;;;;;;9.43;2.30;;;;;;;11.26;100.00;98731.97;8356341;28;20091;-51
2022/11/16 19:41:38;;;;;;;6.25;2.50;;;;;;;11.30;100.00;98729.75;8355508;28;20032;-49
2022/11/16 19:45:38;;;;;;;7.57;2.38;;;;;;;11.25;100.00;98730.31;8355364;28;20047;-50
2022/11/16 19:49:39;;;;;;;5.68;2.15;;;;;;;11.22;100.00;98711.75;8355555;28;20045;-49
2022/11/16 19:53:40;;;;;;;7.35;2.42;;;;;;;11.24;100.00;98719.69;8352814;28;20047;-53
2022/11/16 19:57:40;;;;;;;7.90;2.40;;;;;;;11.22;100.00;98700.09;8349200;28;20114;-49